createdAt,value
2022-12-13T10:48:59.530Z,0.94
2022-12-13T10:49:59.648Z,0.89
2022-12-13T10:50:59.150Z,0.90
2022-12-13T10:51:59.030Z,0.83
2022-12-13T10:52:58.942Z,0.65
2022-12-13T10:53:58.860Z,0.29
2022-12-13T10:55:01.187Z,0.32
2022-12-13T10:56:02.086Z,0.47
2022-12-13T10:56:58.598Z,0.59
2022-12-13T10:57:58.511Z,0.57
2022-12-13T10:58:58.424Z,0.52
2022-12-13T10:59:58.341Z,0.62
2022-12-13T11:00:58.306Z,0.39
2022-12-13T11:01:58.218Z,0.18
2022-12-13T11:02:58.075Z,0.17
2022-12-13T11:04:02.384Z,0.17
2022-12-13T11:04:57.929Z,-0.07
2022-12-13T11:05:57.814Z,-0.01
2022-12-13T11:06:57.726Z,0.04
2022-12-13T11:08:00.825Z,0.06
2022-12-13T11:09:01.406Z,0.04
2022-12-13T11:09:57.463Z,0.21
2022-12-13T11:10:57.414Z,0.17
2022-12-13T11:11:58.740Z,0.13
2022-12-13T11:12:57.200Z,0.07
2022-12-13T11:13:57.119Z,0.04
2022-12-13T11:14:57.020Z,-0.04
2022-12-13T11:15:56.962Z,-0.20
2022-12-13T11:16:56.893Z,-0.43
2022-12-13T11:17:56.759Z,-0.35
2022-12-13T11:18:56.681Z,-0.37
2022-12-13T11:19:56.584Z,-0.38
2022-12-13T11:20:56.560Z,-0.47
2022-12-13T11:21:56.407Z,-0.43
2022-12-13T11:22:56.322Z,-0.59
2022-12-13T11:23:56.228Z,-0.62
2022-12-13T11:24:56.138Z,-0.58
2022-12-13T11:25:56.052Z,-0.64
2022-12-13T11:26:55.962Z,-0.71
2022-12-13T11:27:55.922Z,-0.87
2022-12-13T11:28:55.782Z,-0.91
2022-12-13T11:29:55.694Z,-0.93
2022-12-13T11:30:55.604Z,-0.90
2022-12-13T11:31:55.558Z,-0.93
2022-12-13T11:32:59.061Z,-0.84
2022-12-13T11:33:55.336Z,-0.87
2022-12-13T11:34:55.243Z,-0.80
2022-12-13T11:35:55.157Z,-0.82
2022-12-13T11:36:55.096Z,-0.80
2022-12-13T11:37:54.977Z,-0.79
2022-12-13T11:38:57.845Z,-0.84
2022-12-13T11:40:01.143Z,-0.83
2022-12-13T11:40:54.706Z,-0.83
2022-12-13T11:41:54.619Z,-0.76
2022-12-13T11:42:54.539Z,-0.93
2022-12-13T11:43:54.437Z,-0.86
2022-12-13T11:44:54.345Z,-0.77
2022-12-13T11:45:54.430Z,-0.83
2022-12-13T11:46:54.174Z,-0.79
2022-12-13T11:47:58.491Z,-0.80
2022-12-13T11:48:53.988Z,-0.82
2022-12-13T11:49:53.897Z,-0.86
2022-12-13T11:50:53.806Z,-0.83
2022-12-13T11:51:53.717Z,-0.80
2022-12-13T11:52:53.645Z,-0.84
2022-12-13T11:53:53.538Z,-0.86
2022-12-13T11:54:53.443Z,-0.87
2022-12-13T11:55:53.355Z,-0.74
2022-12-13T11:57:00.183Z,-0.91
2022-12-13T11:57:53.227Z,-0.82
2022-12-13T11:59:02.907Z,-0.77
2022-12-13T11:59:52.996Z,-0.80
2022-12-13T12:00:52.908Z,-0.80
2022-12-13T12:01:52.915Z,-0.79
2022-12-13T12:02:52.804Z,-0.77
2022-12-13T12:03:52.752Z,-0.82
2022-12-13T12:04:59.698Z,-0.82
2022-12-13T12:05:56.008Z,-0.79
2022-12-13T12:06:52.363Z,-0.76
2022-12-13T12:08:21.134Z,-0.83
2022-12-13T12:08:52.202Z,-0.80
2022-12-13T12:09:52.095Z,-0.83
2022-12-13T12:10:52.004Z,-0.83
2022-12-13T12:11:51.912Z,-0.66
2022-12-13T12:12:51.821Z,-0.69
2022-12-13T12:13:52.200Z,-0.66
2022-12-13T12:14:52.276Z,-0.74
2022-12-13T12:15:55.162Z,-0.74
2022-12-13T12:16:51.460Z,-0.69
2022-12-13T12:17:51.371Z,-0.68
2022-12-13T12:18:51.279Z,-0.79
2022-12-13T12:19:51.242Z,-0.86
2022-12-13T12:20:51.120Z,-0.86
2022-12-13T12:22:13.317Z,-0.84
2022-12-13T12:22:50.920Z,-0.83
2022-12-13T12:23:52.674Z,-0.82
2022-12-13T12:24:50.957Z,-0.82
2022-12-13T12:25:50.649Z,-0.68
2022-12-13T12:26:50.557Z,-0.79
2022-12-13T12:27:50.469Z,-0.80
2022-12-13T12:28:50.379Z,-0.77
2022-12-13T12:29:50.288Z,-0.74
2022-12-13T12:30:50.225Z,-0.84
2022-12-13T12:31:50.440Z,-0.84
2022-12-13T12:32:50.015Z,-0.82
2022-12-13T12:33:49.931Z,-0.82
2022-12-13T12:34:49.891Z,-0.79
2022-12-13T12:35:49.746Z,-0.72
2022-12-13T12:36:49.655Z,-0.82
2022-12-13T12:37:49.567Z,-0.80
2022-12-13T12:38:49.476Z,-0.71
2022-12-13T12:39:49.439Z,-0.77
2022-12-13T12:41:17.308Z,-0.65
2022-12-13T12:41:49.206Z,-0.83
2022-12-13T12:43:14.070Z,-0.80
2022-12-13T12:43:49.023Z,-0.68
2022-12-13T12:44:48.932Z,-0.83
2022-12-13T12:45:56.227Z,-0.69
2022-12-13T12:47:19.266Z,-0.71
2022-12-13T12:48:41.269Z,-0.59
2022-12-13T12:49:00.750Z,-0.62
2022-12-13T12:49:48.485Z,-0.56
2022-12-13T12:50:48.395Z,-0.56
2022-12-13T12:51:48.305Z,-0.47
2022-12-13T12:52:48.213Z,-0.59
2022-12-13T12:53:48.125Z,-0.61
2022-12-13T12:54:48.031Z,-0.54
2022-12-13T12:55:47.942Z,-0.47
2022-12-13T12:56:47.906Z,-0.48
2022-12-13T12:57:47.762Z,-0.61
2022-12-13T12:58:47.675Z,-0.62
2022-12-13T12:59:47.582Z,-0.71
2022-12-13T13:00:47.495Z,-0.58
2022-12-13T13:01:47.456Z,-0.66
2022-12-13T13:02:47.370Z,-0.74
2022-12-13T13:03:47.272Z,-0.68
2022-12-13T13:04:47.130Z,-0.79
2022-12-13T13:05:47.042Z,-0.71
2022-12-13T13:06:46.950Z,-0.71
2022-12-13T13:07:51.228Z,-0.68
2022-12-13T13:08:51.628Z,-0.86
2022-12-13T13:09:46.681Z,-0.82
2022-12-13T13:10:49.709Z,-0.74
2022-12-13T13:11:46.507Z,-0.86
2022-12-13T13:12:46.432Z,-0.91
2022-12-13T13:13:47.088Z,-0.90
2022-12-13T13:14:46.232Z,-0.83
2022-12-13T13:15:46.196Z,-0.82
2022-12-13T13:16:46.068Z,-0.79
2022-12-13T13:17:45.962Z,-0.80
2022-12-13T13:18:45.870Z,-0.82
2022-12-13T13:19:45.783Z,-0.79
2022-12-13T13:20:45.731Z,-0.82
2022-12-13T13:21:45.605Z,-0.84
2022-12-13T13:22:53.742Z,-0.79
2022-12-13T13:23:45.918Z,-0.82
2022-12-13T13:24:45.326Z,-0.77
2022-12-13T13:26:15.796Z,-0.84
2022-12-13T13:26:45.148Z,-0.80
2022-12-13T13:27:45.061Z,-0.82
2022-12-13T13:28:44.985Z,-0.79
2022-12-13T13:29:44.876Z,-0.79
2022-12-13T13:30:44.838Z,-0.83
2022-12-13T13:31:44.696Z,-0.71
2022-12-13T13:32:44.606Z,-0.69
2022-12-13T13:33:44.519Z,-0.71
2022-12-13T13:34:44.430Z,-0.68
2022-12-13T13:35:44.343Z,-0.74
2022-12-13T13:36:44.246Z,-0.69
2022-12-13T13:37:44.157Z,-0.71
2022-12-13T13:38:44.068Z,-0.59
2022-12-13T13:39:43.979Z,-0.66
2022-12-13T13:40:43.887Z,-0.71
2022-12-13T13:41:43.799Z,-0.68
2022-12-13T13:42:43.705Z,-0.68
2022-12-13T13:43:43.617Z,-0.66
2022-12-13T13:44:43.544Z,-0.59
2022-12-13T13:45:43.437Z,-0.64
2022-12-13T13:46:43.410Z,-0.64
2022-12-13T13:47:43.259Z,-0.68
2022-12-13T13:48:43.168Z,-0.65
2022-12-13T13:49:43.078Z,-0.66
2022-12-13T13:50:42.986Z,-0.71
2022-12-13T13:52:08.664Z,-0.77
2022-12-13T13:52:42.805Z,-0.68
2022-12-13T13:53:42.721Z,-0.59
2022-12-13T13:54:42.630Z,-0.61
2022-12-13T13:55:42.538Z,-0.58
2022-12-13T13:56:42.446Z,-0.69
2022-12-13T13:58:09.693Z,-0.62
2022-12-13T13:58:42.267Z,-0.72
2022-12-13T13:59:42.229Z,-0.66
2022-12-13T14:00:42.207Z,-0.72
2022-12-13T14:01:42.057Z,-0.71
2022-12-13T14:02:41.954Z,-0.71
2022-12-13T14:03:42.647Z,-0.72
2022-12-13T14:04:41.727Z,-0.66
2022-12-13T14:05:41.639Z,-0.71
2022-12-13T14:06:41.547Z,-0.71
2022-12-13T14:07:41.462Z,-0.69
2022-12-13T14:08:41.406Z,-0.68
2022-12-13T14:09:41.278Z,-0.69
2022-12-13T14:10:41.187Z,-0.64
2022-12-13T14:11:41.097Z,-0.69
2022-12-13T14:12:41.009Z,-0.80
2022-12-13T14:13:44.850Z,-0.80
2022-12-13T14:14:40.830Z,-0.80
2022-12-13T14:15:40.846Z,-0.82
2022-12-13T14:16:40.711Z,-0.90
2022-12-13T14:17:40.560Z,-0.80
2022-12-13T14:18:40.470Z,-0.87
2022-12-13T14:19:40.381Z,-0.90
2022-12-13T14:20:40.324Z,-0.90
2022-12-13T14:21:40.199Z,-0.95
2022-12-13T14:22:40.107Z,-0.96
2022-12-13T14:23:40.019Z,-0.91
2022-12-13T14:24:40.186Z,-0.93
2022-12-13T14:25:40.174Z,-0.98
2022-12-13T14:26:39.748Z,-0.87
2022-12-13T14:27:39.668Z,-0.90
2022-12-13T14:28:39.565Z,-0.87
2022-12-13T14:29:39.478Z,-0.96
2022-12-13T14:30:39.389Z,-0.87
2022-12-13T14:31:39.337Z,-1.05
2022-12-13T14:32:39.221Z,-1.06
2022-12-13T14:33:39.116Z,-1.08
2022-12-13T14:34:39.028Z,-1.13
2022-12-13T14:35:38.932Z,-1.06
2022-12-13T14:36:38.842Z,-1.05
2022-12-13T14:37:38.803Z,-1.14
2022-12-13T14:38:38.663Z,-1.20
2022-12-13T14:39:38.574Z,-1.23
2022-12-13T14:40:38.479Z,-1.20
2022-12-13T14:41:38.391Z,-1.26
2022-12-13T14:42:38.301Z,-1.17
2022-12-13T14:43:38.212Z,-1.24
2022-12-13T14:44:38.119Z,-1.26
2022-12-13T14:45:38.031Z,-1.29
2022-12-13T14:46:37.967Z,-1.29
2022-12-13T14:47:37.847Z,-1.26
2022-12-13T14:48:37.801Z,-1.26
2022-12-13T14:49:37.667Z,-1.32
2022-12-13T14:50:37.575Z,-1.34
2022-12-13T14:51:37.537Z,-1.29
2022-12-13T14:52:37.394Z,-1.38
2022-12-13T14:53:37.319Z,-1.35
2022-12-13T14:54:37.214Z,-1.41
2022-12-13T14:55:37.123Z,-1.41
2022-12-13T14:56:37.033Z,-1.47
2022-12-13T14:57:36.943Z,-1.44
2022-12-13T14:58:36.902Z,-1.40
2022-12-13T14:59:36.760Z,-1.47
2022-12-13T15:00:36.723Z,-1.48
2022-12-13T15:01:36.581Z,-1.56
2022-12-13T15:02:36.488Z,-1.44
2022-12-13T15:03:36.399Z,-1.59
2022-12-13T15:04:36.358Z,-1.52
2022-12-13T15:05:36.216Z,-1.59
2022-12-13T15:06:36.127Z,-1.65
2022-12-13T15:07:36.035Z,-1.62
2022-12-13T15:08:35.946Z,-1.65
2022-12-13T15:09:35.857Z,-1.63
2022-12-13T15:10:35.769Z,-1.58
2022-12-13T15:11:35.674Z,-1.58
2022-12-13T15:12:35.584Z,-1.62
2022-12-13T15:13:35.498Z,-1.59
2022-12-13T15:14:35.404Z,-1.68
2022-12-13T15:15:35.315Z,-1.70
2022-12-13T15:16:35.270Z,-1.76
2022-12-13T15:17:35.133Z,-1.89
2022-12-13T15:18:35.041Z,-1.88
2022-12-13T15:19:40.318Z,-1.88
2022-12-13T15:20:34.974Z,-1.98
2022-12-13T15:21:34.769Z,-1.95
2022-12-13T15:22:34.682Z,-2.01
2022-12-13T15:23:34.590Z,-1.97
2022-12-13T15:24:34.498Z,-1.94
2022-12-13T15:25:34.407Z,-1.97
2022-12-13T15:26:34.317Z,-1.94
2022-12-13T15:27:34.226Z,-2.01
2022-12-13T15:28:34.136Z,-2.15
2022-12-13T15:29:34.045Z,-2.17
2022-12-13T15:30:33.957Z,-2.13
2022-12-13T15:31:33.910Z,-2.16
2022-12-13T15:32:33.773Z,-2.01
2022-12-13T15:33:38.125Z,-1.98
2022-12-13T15:34:33.591Z,-2.01
2022-12-13T15:35:33.508Z,-1.98
2022-12-13T15:36:33.434Z,-1.97
2022-12-13T15:37:33.320Z,-1.99
2022-12-13T15:38:33.231Z,-1.99
2022-12-13T15:39:33.137Z,-1.95
2022-12-13T15:40:33.047Z,-1.95
2022-12-13T15:41:33.009Z,-1.98
2022-12-13T15:42:32.869Z,-1.98
2022-12-13T15:43:32.775Z,-1.92
2022-12-13T15:44:32.683Z,-1.99
2022-12-13T15:45:36.913Z,-1.98
2022-12-13T15:46:32.555Z,-1.94
2022-12-13T15:47:32.412Z,-1.95
2022-12-13T15:48:32.324Z,-1.91
2022-12-13T15:49:32.230Z,-1.95
2022-12-13T15:50:32.143Z,-1.95
2022-12-13T15:51:32.051Z,-1.98
2022-12-13T15:52:31.978Z,-2.02
2022-12-13T15:53:31.867Z,-2.09
2022-12-13T15:54:31.784Z,-2.12
2022-12-13T15:55:31.683Z,-2.13
2022-12-13T15:56:31.597Z,-2.15
2022-12-13T15:57:31.502Z,-2.20
2022-12-13T15:58:31.449Z,-2.09
2022-12-13T15:59:31.779Z,-2.17
2022-12-13T16:00:32.333Z,-2.07
2022-12-13T16:01:31.189Z,-2.10
2022-12-13T16:02:31.049Z,-2.23
2022-12-13T16:03:31.377Z,-2.17
2022-12-13T16:04:30.867Z,-2.23
2022-12-13T16:05:30.774Z,-2.25
2022-12-13T16:06:30.841Z,-2.25
2022-12-13T16:07:30.592Z,-2.25
2022-12-13T16:08:30.523Z,-2.25
2022-12-13T16:09:30.410Z,-2.22
2022-12-13T16:10:30.322Z,-2.20
2022-12-13T16:11:30.225Z,-2.22
2022-12-13T16:12:30.138Z,-2.19
2022-12-13T16:13:30.567Z,-2.23
2022-12-13T16:14:30.502Z,-2.23
2022-12-13T16:15:30.198Z,-2.17
2022-12-13T16:16:29.829Z,-2.20
2022-12-13T16:17:29.681Z,-2.22
2022-12-13T16:18:29.596Z,-2.35
2022-12-13T16:19:29.498Z,-2.30
2022-12-13T16:20:29.511Z,-2.32
2022-12-13T16:21:35.599Z,-2.28
2022-12-13T16:22:29.225Z,-2.30
2022-12-13T16:23:29.434Z,-2.30
2022-12-13T16:24:29.060Z,-2.23
2022-12-13T16:25:28.958Z,-2.22
2022-12-13T16:26:28.861Z,-2.25
2022-12-13T16:27:28.765Z,-2.25
2022-12-13T16:28:28.675Z,-2.27
2022-12-13T16:29:28.584Z,-2.23
2022-12-13T16:30:28.495Z,-2.20
2022-12-13T16:31:28.476Z,-2.19
2022-12-13T16:32:28.351Z,-2.16
2022-12-13T16:33:28.216Z,-2.16
2022-12-13T16:34:28.128Z,-2.13
2022-12-13T16:35:28.036Z,-2.19
2022-12-13T16:36:27.947Z,-2.16
2022-12-13T16:37:27.851Z,-2.12
2022-12-13T16:38:27.762Z,-2.19
2022-12-13T16:39:27.667Z,-2.17
2022-12-13T16:40:27.598Z,-2.13
2022-12-13T16:41:27.488Z,-2.19
2022-12-13T16:42:27.395Z,-2.13
2022-12-13T16:43:33.394Z,-2.12
2022-12-13T16:44:27.223Z,-2.13
2022-12-13T16:45:41.569Z,-2.10
2022-12-13T16:47:11.963Z,-2.15
2022-12-13T16:47:38.926Z,-2.16
2022-12-13T16:48:27.403Z,-2.15
2022-12-13T16:49:26.767Z,-2.13
2022-12-13T16:50:26.681Z,-2.09
2022-12-13T16:51:26.570Z,-2.22
2022-12-13T16:52:26.481Z,-2.09
2022-12-13T16:53:26.745Z,-2.28
2022-12-13T16:54:26.300Z,-2.28
2022-12-13T16:55:26.201Z,-2.27
2022-12-13T16:56:26.139Z,-2.30
2022-12-13T16:57:26.018Z,-2.22
2022-12-13T16:58:25.930Z,-2.19
2022-12-13T16:59:25.835Z,-2.25
2022-12-13T17:00:25.745Z,-2.34
2022-12-13T17:01:25.696Z,-2.34
2022-12-13T17:02:25.640Z,-2.27
2022-12-13T17:03:25.898Z,-2.32
2022-12-13T17:04:25.377Z,-2.34
2022-12-13T17:05:25.335Z,-2.34
2022-12-13T17:06:25.194Z,-2.22
2022-12-13T17:07:25.151Z,-2.19
2022-12-13T17:08:25.008Z,-2.28
2022-12-13T17:09:24.966Z,-2.35
2022-12-13T17:10:24.826Z,-2.34
2022-12-13T17:11:24.734Z,-2.35
2022-12-13T17:12:24.659Z,-2.35
2022-12-13T17:13:24.955Z,-2.38
2022-12-13T17:14:24.529Z,-2.38
2022-12-13T17:15:24.384Z,-2.39
2022-12-13T17:16:24.315Z,-2.39
2022-12-13T17:17:24.185Z,-2.34
2022-12-13T17:18:24.093Z,-2.22
2022-12-13T17:19:24.002Z,-2.32
2022-12-13T17:20:23.982Z,-2.32
2022-12-13T17:21:23.817Z,-2.39
2022-12-13T17:22:23.726Z,-2.34
2022-12-13T17:23:23.639Z,-2.27
2022-12-13T17:24:23.543Z,-2.34
2022-12-13T17:25:23.495Z,-2.35
2022-12-13T17:26:23.361Z,-2.42
2022-12-13T17:27:23.265Z,-2.41
2022-12-13T17:28:23.195Z,-2.35
2022-12-13T17:29:23.086Z,-2.47
2022-12-13T17:30:22.990Z,-2.36
2022-12-13T17:31:22.970Z,-2.27
2022-12-13T17:32:22.806Z,-2.32
2022-12-13T17:33:23.067Z,-2.34
2022-12-13T17:34:22.672Z,-2.42
2022-12-13T17:35:22.546Z,-2.41
2022-12-13T17:36:22.440Z,-2.36
2022-12-13T17:37:22.349Z,-2.36
2022-12-13T17:38:22.446Z,-2.41
2022-12-13T17:39:22.234Z,-2.30
2022-12-13T17:40:22.093Z,-2.45
2022-12-13T17:41:22.000Z,-2.39
2022-12-13T17:42:21.904Z,-2.38
2022-12-13T17:43:32.732Z,-2.42
2022-12-13T17:44:21.727Z,-2.38
2022-12-13T17:45:21.614Z,-2.38
2022-12-13T17:46:21.628Z,-2.38
2022-12-13T17:47:21.479Z,-2.32
2022-12-13T17:48:21.338Z,-2.30
2022-12-13T17:49:21.249Z,-2.34
2022-12-13T17:50:21.158Z,-2.28
2022-12-13T17:51:21.063Z,-2.36
2022-12-13T17:52:20.975Z,-2.34
2022-12-13T17:53:20.882Z,-2.36
2022-12-13T17:54:20.789Z,-2.35
2022-12-13T17:55:20.710Z,-2.32
2022-12-13T17:56:20.608Z,-2.28
2022-12-13T17:57:20.513Z,-2.35
2022-12-13T17:58:20.423Z,-2.35
2022-12-13T17:59:20.328Z,-2.28
2022-12-13T18:00:20.270Z,-2.25
2022-12-13T18:01:20.191Z,-2.20
2022-12-13T18:02:20.105Z,-2.23
2022-12-13T18:03:19.962Z,-2.27
2022-12-13T18:04:19.871Z,-2.28
2022-12-13T18:05:19.781Z,-2.32
2022-12-13T18:06:19.688Z,-2.32
2022-12-13T18:07:19.596Z,-2.34
2022-12-13T18:08:19.507Z,-2.35
2022-12-13T18:09:19.413Z,-2.32
2022-12-13T18:10:20.234Z,-2.28
2022-12-13T18:11:35.205Z,-2.32
2022-12-13T18:12:19.139Z,-2.27
2022-12-13T18:13:19.046Z,-2.27
2022-12-13T18:14:18.960Z,-2.23
2022-12-13T18:15:18.864Z,-2.30
2022-12-13T18:16:18.844Z,-2.27
2022-12-13T18:17:18.678Z,-2.27
2022-12-13T18:18:18.588Z,-2.27
2022-12-13T18:19:18.496Z,-2.27
2022-12-13T18:20:18.449Z,-2.36
2022-12-13T18:21:18.314Z,-2.32
2022-12-13T18:22:18.221Z,-2.28
2022-12-13T18:23:18.380Z,-2.27
2022-12-13T18:24:18.036Z,-2.30
2022-12-13T18:25:17.944Z,-2.23
2022-12-13T18:26:17.855Z,-2.20
2022-12-13T18:27:17.764Z,-2.25
2022-12-13T18:28:17.670Z,-2.19
2022-12-13T18:29:17.581Z,-2.19
2022-12-13T18:30:17.489Z,-2.17
2022-12-13T18:31:17.488Z,-2.20
2022-12-13T18:32:17.324Z,-2.22
2022-12-13T18:33:17.213Z,-2.28
2022-12-13T18:34:17.274Z,-2.22
2022-12-13T18:35:17.029Z,-2.16
2022-12-13T18:36:16.938Z,-2.13
2022-12-13T18:37:16.848Z,-2.10
2022-12-13T18:38:16.758Z,-2.12
2022-12-13T18:39:16.664Z,-2.20
2022-12-13T18:40:16.575Z,-2.17
2022-12-13T18:41:16.481Z,-2.07
2022-12-13T18:42:16.502Z,-2.12
2022-12-13T18:43:16.296Z,-2.15
2022-12-13T18:44:16.209Z,-2.10
2022-12-13T18:45:16.115Z,-2.10
2022-12-13T18:46:16.188Z,-2.15
2022-12-13T18:47:20.935Z,-2.06
2022-12-13T18:48:15.858Z,-2.02
2022-12-13T18:49:15.750Z,-1.95
2022-12-13T18:50:15.661Z,-1.99
2022-12-13T18:51:15.570Z,-2.09
2022-12-13T18:52:15.476Z,-2.06
2022-12-13T18:53:15.384Z,-2.04
2022-12-13T18:54:15.301Z,-2.13
2022-12-13T18:55:15.200Z,-2.06
2022-12-13T18:56:18.706Z,-2.09
2022-12-13T18:57:15.017Z,-2.01
2022-12-13T18:58:14.926Z,-1.94
2022-12-13T18:59:14.834Z,-1.89
2022-12-13T19:00:14.748Z,-1.97
2022-12-13T19:01:14.709Z,-1.92
2022-12-13T19:02:14.559Z,-1.95
2022-12-13T19:03:14.547Z,-1.94
2022-12-13T19:04:14.394Z,-1.81
2022-12-13T19:05:14.357Z,-1.88
2022-12-13T19:06:14.194Z,-1.88
2022-12-13T19:07:14.104Z,-1.88
2022-12-13T19:08:14.237Z,-1.86
2022-12-13T19:09:13.934Z,-1.80
2022-12-13T19:10:13.852Z,-1.83
2022-12-13T19:11:13.737Z,-1.81
2022-12-13T19:12:13.649Z,-1.92
2022-12-13T19:13:13.556Z,-1.94
2022-12-13T19:14:13.467Z,-2.01
2022-12-13T19:15:13.371Z,-1.99
2022-12-13T19:16:13.326Z,-1.99
2022-12-13T19:17:13.191Z,-1.86
2022-12-13T19:18:13.100Z,-1.99
2022-12-13T19:19:13.010Z,-1.89
2022-12-13T19:20:12.962Z,-1.88
2022-12-13T19:21:12.830Z,-1.88
2022-12-13T19:22:12.737Z,-1.86
2022-12-13T19:23:12.644Z,-1.73
2022-12-13T19:24:12.554Z,-1.84
2022-12-13T19:25:12.462Z,-1.80
2022-12-13T19:26:12.371Z,-1.83
2022-12-13T19:27:12.280Z,-1.80
2022-12-13T19:28:12.207Z,-1.84
2022-12-13T19:29:12.123Z,-1.81
2022-12-13T19:30:12.033Z,-1.83
2022-12-13T19:31:12.033Z,-1.81
2022-12-13T19:32:11.833Z,-1.77
2022-12-13T19:33:11.738Z,-1.74
2022-12-13T19:34:11.646Z,-1.73
2022-12-13T19:35:11.556Z,-1.71
2022-12-13T19:36:11.483Z,-1.74
2022-12-13T19:37:11.477Z,-1.74
2022-12-13T19:38:11.298Z,-1.74
2022-12-13T19:39:11.212Z,-1.76
2022-12-13T19:40:11.101Z,-1.76
2022-12-13T19:41:11.073Z,-1.73
2022-12-13T19:42:10.929Z,-1.74
2022-12-13T19:43:10.839Z,-1.73
2022-12-13T19:44:10.737Z,-1.80
2022-12-13T19:45:10.646Z,-1.74
2022-12-13T19:46:10.574Z,-1.77
2022-12-13T19:47:10.466Z,-1.77
2022-12-13T19:48:10.373Z,-1.74
2022-12-13T19:49:10.285Z,-1.68
2022-12-13T19:50:10.192Z,-1.71
2022-12-13T19:51:10.110Z,-1.71
2022-12-13T19:52:10.030Z,-1.68
2022-12-13T19:53:09.921Z,-1.63
2022-12-13T19:54:09.829Z,-1.68
2022-12-13T19:55:09.738Z,-1.60
2022-12-13T19:56:09.664Z,-1.58
2022-12-13T19:57:09.556Z,-1.52
2022-12-13T19:58:09.465Z,-1.56
2022-12-13T19:59:09.390Z,-1.62
2022-12-13T20:00:09.281Z,-1.59
2022-12-13T20:01:09.241Z,-1.65
2022-12-13T20:02:09.170Z,-1.65
2022-12-13T20:03:09.107Z,-1.70
2022-12-13T20:04:08.970Z,-1.70
2022-12-13T20:05:08.831Z,-1.62
2022-12-13T20:06:08.740Z,-1.63
2022-12-13T20:07:08.648Z,-1.60
2022-12-13T20:08:08.575Z,-1.71
2022-12-13T20:09:08.467Z,-1.70
2022-12-13T20:10:08.625Z,-1.63
2022-12-13T20:11:08.284Z,-1.62
2022-12-13T20:12:08.192Z,-1.62
2022-12-13T20:13:08.102Z,-1.66
2022-12-13T20:14:08.010Z,-1.65
2022-12-13T20:15:07.930Z,-1.58
2022-12-13T20:16:07.873Z,-1.47
2022-12-13T20:17:07.741Z,-1.56
2022-12-13T20:18:07.647Z,-1.63
2022-12-13T20:19:07.557Z,-1.62
2022-12-13T20:20:07.502Z,-1.63
2022-12-13T20:21:12.574Z,-1.62
2022-12-13T20:22:07.285Z,-1.65
2022-12-13T20:23:07.194Z,-1.56
2022-12-13T20:24:07.133Z,-1.56
2022-12-13T20:25:07.015Z,-1.62
2022-12-13T20:26:06.924Z,-1.65
2022-12-13T20:27:06.834Z,-1.68
2022-12-13T20:28:10.299Z,-1.63
2022-12-13T20:29:06.902Z,-1.68
2022-12-13T20:30:06.559Z,-1.66
2022-12-13T20:31:06.508Z,-1.62
2022-12-13T20:32:06.377Z,-1.47
2022-12-13T20:33:06.287Z,-1.53
2022-12-13T20:34:06.197Z,-1.58
2022-12-13T20:35:06.111Z,-1.65
2022-12-13T20:36:26.214Z,-1.60
2022-12-13T20:37:05.946Z,-1.65
2022-12-13T20:38:05.830Z,-1.58
2022-12-13T20:39:05.742Z,-1.59
2022-12-13T20:40:05.667Z,-1.62
2022-12-13T20:41:05.639Z,-1.50
2022-12-13T20:42:05.469Z,-1.48
2022-12-13T20:43:05.377Z,-1.53
2022-12-13T20:44:05.352Z,-1.53
2022-12-13T20:45:05.196Z,-1.56
2022-12-13T20:46:05.115Z,-1.52
2022-12-13T20:47:05.068Z,-1.42
2022-12-13T20:48:04.924Z,-1.53
2022-12-13T20:49:04.834Z,-1.48
2022-12-13T20:50:04.743Z,-1.53
2022-12-13T20:51:04.652Z,-1.45
2022-12-13T20:52:04.560Z,-1.56
2022-12-13T20:53:04.470Z,-1.48
2022-12-13T20:54:04.380Z,-1.56
2022-12-13T20:55:04.287Z,-1.53
2022-12-13T20:56:04.217Z,-1.56
2022-12-13T20:57:04.107Z,-1.56
2022-12-13T20:58:04.015Z,-1.56
2022-12-13T20:59:03.932Z,-1.55
2022-12-13T21:00:03.835Z,-1.56
2022-12-13T21:01:03.768Z,-1.53
2022-12-13T21:02:03.734Z,-1.50
2022-12-13T21:03:03.562Z,-1.52
2022-12-13T21:04:03.471Z,-1.44
2022-12-13T21:05:03.483Z,-1.50
2022-12-13T21:06:03.290Z,-1.44
2022-12-13T21:07:03.202Z,-1.45
2022-12-13T21:08:03.110Z,-1.45
2022-12-13T21:09:03.189Z,-1.48
2022-12-13T21:10:03.130Z,-1.38
2022-12-13T21:11:05.325Z,-1.41
2022-12-13T21:12:02.770Z,-1.42
2022-12-13T21:13:02.670Z,-1.38
2022-12-13T21:14:08.193Z,-1.35
2022-12-13T21:15:02.476Z,-1.30
2022-12-13T21:16:02.493Z,-1.37
2022-12-13T21:17:02.302Z,-1.35
2022-12-13T21:18:02.211Z,-1.27
2022-12-13T21:19:02.116Z,-1.37
2022-12-13T21:20:02.104Z,-1.34
2022-12-13T21:21:01.936Z,-1.34
2022-12-13T21:22:01.844Z,-1.34
2022-12-13T21:23:01.755Z,-1.41
2022-12-13T21:24:01.664Z,-1.34
2022-12-13T21:25:01.584Z,-1.35
2022-12-13T21:26:01.486Z,-1.35
2022-12-13T21:27:01.396Z,-1.47
2022-12-13T21:28:01.324Z,-1.35
2022-12-13T21:29:01.212Z,-1.50
2022-12-13T21:30:01.121Z,-1.48
2022-12-13T21:31:01.031Z,-1.50
2022-12-13T21:32:01.087Z,-1.48
2022-12-13T21:33:00.849Z,-1.55
2022-12-13T21:34:00.760Z,-1.44
2022-12-13T21:35:00.674Z,-1.53
2022-12-13T21:36:00.728Z,-1.56
2022-12-13T21:37:00.490Z,-1.47
2022-12-13T21:38:05.128Z,-1.47
2022-12-13T21:39:00.309Z,-1.47
2022-12-13T21:40:00.215Z,-1.48
2022-12-13T21:41:00.127Z,-1.53
2022-12-13T21:42:00.036Z,-1.48
2022-12-13T21:42:59.947Z,-1.56
2022-12-13T21:44:00.610Z,-1.50
2022-12-13T21:45:02.349Z,-1.58
2022-12-13T21:45:59.800Z,-1.52
2022-12-13T21:47:15.095Z,-1.53
2022-12-13T21:47:59.493Z,-1.52
2022-12-13T21:48:59.404Z,-1.50
2022-12-13T21:49:59.314Z,-1.50
2022-12-13T21:50:59.222Z,-1.55
2022-12-13T21:51:59.131Z,-1.58
2022-12-13T21:52:59.043Z,-1.55
2022-12-13T21:53:58.950Z,-1.60
2022-12-13T21:55:22.144Z,-1.60
2022-12-13T21:55:58.768Z,-1.63
2022-12-13T21:56:58.680Z,-1.48
2022-12-13T21:58:00.815Z,-1.58
2022-12-13T21:58:58.594Z,-1.55
2022-12-13T21:59:58.426Z,-1.53
2022-12-13T22:00:58.399Z,-1.50
2022-12-13T22:01:58.271Z,-1.50
2022-12-13T22:02:58.135Z,-1.53
2022-12-13T22:04:00.626Z,-1.45
2022-12-13T22:04:57.953Z,-1.47
2022-12-13T22:05:57.863Z,-1.52
2022-12-13T22:06:57.773Z,-1.42
2022-12-13T22:07:57.681Z,-1.45
2022-12-13T22:08:57.590Z,-1.45
2022-12-13T22:09:57.507Z,-1.44
2022-12-13T22:10:57.409Z,-1.45
2022-12-13T22:11:57.319Z,-1.40
2022-12-13T22:12:57.235Z,-1.41
2022-12-13T22:13:57.140Z,-1.50
2022-12-13T22:14:57.048Z,-1.34
2022-12-13T22:15:56.978Z,-1.48
2022-12-13T22:16:56.869Z,-1.42
2022-12-13T22:17:56.777Z,-1.45
2022-12-13T22:18:56.687Z,-1.45
2022-12-13T22:19:56.662Z,-1.48
2022-12-13T22:20:56.506Z,-1.40
2022-12-13T22:21:56.414Z,-1.38
2022-12-13T22:22:56.327Z,-1.38
2022-12-13T22:23:56.234Z,-1.35
2022-12-13T22:24:56.158Z,-1.44
2022-12-13T22:25:56.055Z,-1.44
2022-12-13T22:26:55.962Z,-1.35
2022-12-13T22:27:55.873Z,-1.45
2022-12-13T22:28:55.782Z,-1.38
2022-12-13T22:29:55.691Z,-1.38
2022-12-13T22:30:55.604Z,-1.38
2022-12-13T22:31:55.577Z,-1.40
2022-12-13T22:32:55.421Z,-1.45
2022-12-13T22:33:55.331Z,-1.42
2022-12-13T22:34:55.247Z,-1.45
2022-12-13T22:35:55.152Z,-1.41
2022-12-13T22:36:55.063Z,-1.42
2022-12-13T22:38:00.141Z,-1.45
2022-12-13T22:38:54.879Z,-1.45
2022-12-13T22:39:54.795Z,-1.42
2022-12-13T22:40:54.699Z,-1.42
2022-12-13T22:41:54.606Z,-1.38
2022-12-13T22:42:54.516Z,-1.37
2022-12-13T22:43:54.428Z,-1.40
2022-12-13T22:44:54.339Z,-1.40
2022-12-13T22:45:54.274Z,-1.27
2022-12-13T22:46:54.156Z,-1.34
2022-12-13T22:47:54.088Z,-1.27
2022-12-13T22:48:53.981Z,-1.38
2022-12-13T22:49:53.886Z,-1.37
2022-12-13T22:50:53.796Z,-1.42
2022-12-13T22:51:53.705Z,-1.32
2022-12-13T22:52:53.615Z,-1.42
2022-12-13T22:53:53.521Z,-1.38
2022-12-13T22:54:53.434Z,-1.32
2022-12-13T22:55:53.340Z,-1.35
2022-12-13T22:56:53.254Z,-1.34
2022-12-13T22:57:53.163Z,-1.42
2022-12-13T22:58:53.073Z,-1.42
2022-12-13T22:59:52.980Z,-1.38
2022-12-13T23:00:53.060Z,-1.41
2022-12-13T23:01:55.421Z,-1.32
2022-12-13T23:02:52.747Z,-1.37
2022-12-13T23:03:52.639Z,-1.37
2022-12-13T23:04:52.529Z,-1.27
2022-12-13T23:05:52.438Z,-1.34
2022-12-13T23:06:52.347Z,-1.38
2022-12-13T23:07:52.258Z,-1.35
2022-12-13T23:08:52.167Z,-1.41
2022-12-13T23:09:52.073Z,-1.29
2022-12-13T23:10:51.986Z,-1.26
2022-12-13T23:11:51.896Z,-1.23
2022-12-13T23:12:51.805Z,-1.32
2022-12-13T23:13:51.713Z,-1.29
2022-12-13T23:14:51.625Z,-1.34
2022-12-13T23:15:51.531Z,-1.27
2022-12-13T23:16:51.506Z,-1.27
2022-12-13T23:17:51.355Z,-1.24
2022-12-13T23:19:01.233Z,-1.26
2022-12-13T23:19:53.443Z,-1.17
2022-12-13T23:20:51.082Z,-1.14
2022-12-13T23:21:50.989Z,-1.17
2022-12-13T23:22:50.903Z,-1.23
2022-12-13T23:23:50.807Z,-1.17
2022-12-13T23:24:50.819Z,-1.20
2022-12-13T23:25:50.627Z,-1.17
2022-12-13T23:26:50.538Z,-1.19
2022-12-13T23:27:50.446Z,-1.17
2022-12-13T23:28:50.355Z,-1.05
2022-12-13T23:29:50.268Z,-1.11
2022-12-13T23:30:50.253Z,-1.17
2022-12-13T23:31:50.082Z,-1.20
2022-12-13T23:32:49.993Z,-1.13
2022-12-13T23:33:49.903Z,-1.14
2022-12-13T23:34:49.861Z,-1.27
2022-12-13T23:35:49.743Z,-1.26
2022-12-13T23:36:49.636Z,-1.26
2022-12-13T23:37:49.542Z,-1.27
2022-12-13T23:38:49.448Z,-1.23
2022-12-13T23:39:49.362Z,-1.20
2022-12-13T23:40:49.418Z,-1.23